createdAt,value
2023-03-06T00:00:38.994Z,85.49
2023-03-06T00:03:06.372Z,85.71
2023-03-06T00:05:32.964Z,85.76
2023-03-06T00:07:59.944Z,85.96
2023-03-06T00:10:29.059Z,86.15
2023-03-06T00:13:01.121Z,86.23
2023-03-06T00:15:28.265Z,86.23
2023-03-06T00:17:56.253Z,86.47
2023-03-06T00:20:22.725Z,86.64
2023-03-06T00:22:49.293Z,86.65
2023-03-06T00:25:18.951Z,86.87
2023-03-06T00:27:45.536Z,86.83
2023-03-06T00:30:15.294Z,87.01
2023-03-06T00:32:42.255Z,87.13
2023-03-06T00:35:09.502Z,86.98
2023-03-06T00:37:36.104Z,87.31
2023-03-06T00:40:05.838Z,87.28
2023-03-06T00:42:32.434Z,87.17
2023-03-06T00:44:59.161Z,87.40
2023-03-06T00:47:25.715Z,87.41
2023-03-06T00:49:52.318Z,87.85
2023-03-06T00:52:18.791Z,87.58
2023-03-06T00:54:45.237Z,88.37
2023-03-06T00:57:11.847Z,88.19
2023-03-06T00:59:38.426Z,88.01
2023-03-06T01:02:05.145Z,87.89
2023-03-06T01:04:31.651Z,88.31
2023-03-06T01:06:58.236Z,88.13
2023-03-06T01:09:24.990Z,88.55
2023-03-06T01:11:51.589Z,88.62
2023-03-06T01:14:19.389Z,88.50
2023-03-06T01:16:46.758Z,88.90
2023-03-06T01:19:13.807Z,88.80
2023-03-06T01:21:40.574Z,89.11
2023-03-06T01:24:07.664Z,89.04
2023-03-06T01:26:34.584Z,89.41
2023-03-06T01:29:01.605Z,89.27
2023-03-06T01:31:28.093Z,89.21
2023-03-06T01:33:57.667Z,89.44
2023-03-06T01:36:24.396Z,89.54
2023-03-06T01:38:50.929Z,89.74
2023-03-06T01:41:18.535Z,89.84
2023-03-06T01:43:47.046Z,89.67
2023-03-06T01:46:32.023Z,89.79
2023-03-06T01:49:04.754Z,89.79
2023-03-06T01:52:08.279Z,89.42
2023-03-06T01:54:45.645Z,89.28
2023-03-06T01:57:25.378Z,89.53
2023-03-06T02:00:07.276Z,89.47
2023-03-06T02:02:34.134Z,89.30
2023-03-06T02:05:46.349Z,89.42
2023-03-06T02:08:16.485Z,89.56
2023-03-06T02:10:57.255Z,89.85
2023-03-06T02:13:49.808Z,89.92
2023-03-06T02:16:26.411Z,90.15
2023-03-06T02:19:00.986Z,90.18
2023-03-06T02:21:35.444Z,89.99
2023-03-06T02:24:33.818Z,90.33
2023-03-06T02:27:04.031Z,90.26
2023-03-06T02:29:32.046Z,90.42
2023-03-06T02:32:19.425Z,90.53
2023-03-06T02:34:55.729Z,90.58
2023-03-06T02:37:27.024Z,90.40
2023-03-06T02:40:01.173Z,90.91
2023-03-06T02:42:29.206Z,91.10
2023-03-06T02:44:59.011Z,91.23
2023-03-06T02:47:26.514Z,91.19
2023-03-06T02:49:56.005Z,91.44
2023-03-06T02:52:22.965Z,91.41
2023-03-06T02:54:52.881Z,91.32
2023-03-06T02:57:19.697Z,91.60
2023-03-06T02:59:49.797Z,91.29
2023-03-06T03:02:21.410Z,91.54
2023-03-06T03:04:48.670Z,91.30
2023-03-06T03:07:15.876Z,91.44
2023-03-06T03:09:44.342Z,91.49
2023-03-06T03:12:14.806Z,91.62
2023-03-06T03:14:44.573Z,91.57
2023-03-06T03:17:18.436Z,91.45
2023-03-06T03:19:48.099Z,91.83
2023-03-06T03:22:30.196Z,91.88
2023-03-06T03:24:59.793Z,91.46
2023-03-06T03:27:27.964Z,91.57
2023-03-06T03:29:58.240Z,91.67
2023-03-06T03:32:30.607Z,91.53
2023-03-06T03:35:01.400Z,91.73
2023-03-06T03:37:35.543Z,91.80
2023-03-06T03:40:06.153Z,91.82
2023-03-06T03:42:33.007Z,91.62
2023-03-06T03:45:02.634Z,91.90
2023-03-06T03:47:34.183Z,91.74
2023-03-06T03:50:01.028Z,91.97
2023-03-06T03:52:28.002Z,91.85
2023-03-06T03:55:22.555Z,91.76
2023-03-06T03:57:52.659Z,92.28
2023-03-06T04:00:25.586Z,92.14
2023-03-06T04:02:59.437Z,91.83
2023-03-06T04:05:33.388Z,91.61
2023-03-06T04:13:45.028Z,91.56
2023-03-06T04:16:13.124Z,91.36
2023-03-06T04:18:40.751Z,91.82
2023-03-06T04:21:12.824Z,91.68
2023-03-06T04:23:42.657Z,91.61
2023-03-06T04:26:11.912Z,91.68
2023-03-06T04:28:38.756Z,91.47
2023-03-06T04:31:10.581Z,91.70
2023-03-06T04:33:42.592Z,91.87
2023-03-06T04:36:28.179Z,91.94
2023-03-06T04:38:58.466Z,91.73
2023-03-06T04:41:27.150Z,91.65
2023-03-06T04:43:57.209Z,91.88
2023-03-06T04:46:49.979Z,91.80
2023-03-06T04:49:35.380Z,91.83
2023-03-06T04:52:03.941Z,91.59
2023-03-06T04:54:34.180Z,92.01
2023-03-06T04:57:01.149Z,92.08
2023-03-06T04:59:32.559Z,91.90
2023-03-06T05:01:59.161Z,91.93
2023-03-06T05:04:29.167Z,92.42
2023-03-06T05:06:57.254Z,92.57
2023-03-06T05:09:26.715Z,92.21
2023-03-06T05:12:00.648Z,92.57
2023-03-06T05:14:33.948Z,92.53
2023-03-06T05:17:03.138Z,92.59
2023-03-06T05:19:37.129Z,92.71
2023-03-06T05:22:05.833Z,93.33
2023-03-06T05:24:41.597Z,93.06
2023-03-06T05:27:11.388Z,93.33
2023-03-06T05:29:38.152Z,92.91
2023-03-06T05:32:10.323Z,93.33
2023-03-06T05:34:36.937Z,92.78
2023-03-06T05:37:05.097Z,92.96
2023-03-06T05:39:32.567Z,92.94
2023-03-06T05:42:03.883Z,92.94
2023-03-06T05:44:36.208Z,93.07
2023-03-06T05:47:09.334Z,93.10
2023-03-06T05:49:40.570Z,92.97
2023-03-06T05:52:12.185Z,92.98
2023-03-06T05:54:44.020Z,93.00
2023-03-06T05:57:10.663Z,92.90
2023-03-06T05:59:37.522Z,93.21
2023-03-06T06:02:13.188Z,92.95
2023-03-06T06:04:54.256Z,93.06
2023-03-06T06:07:20.970Z,93.64
2023-03-06T06:09:53.574Z,93.71
2023-03-06T06:12:26.210Z,93.53
2023-03-06T06:14:53.078Z,93.82
2023-03-06T06:17:20.593Z,93.71
2023-03-06T06:19:48.898Z,93.88
2023-03-06T06:22:19.145Z,93.78
2023-03-06T06:24:46.662Z,93.70
2023-03-06T06:29:55.616Z,94.13
2023-03-06T06:32:43.756Z,94.10
2023-03-06T06:35:36.253Z,94.05
2023-03-06T06:38:28.825Z,94.33
2023-03-06T06:41:35.663Z,94.62
2023-03-06T06:43:59.023Z,94.41
2023-03-06T06:47:18.270Z,94.03
2023-03-06T06:49:23.997Z,93.99
2023-03-06T06:51:50.723Z,93.66
2023-03-06T06:54:25.372Z,93.43
2023-03-06T06:56:55.472Z,93.21
2023-03-06T06:59:27.438Z,93.22
2023-03-06T07:02:01.320Z,93.58
2023-03-06T07:04:33.530Z,93.26
2023-03-06T07:09:45.079Z,92.87
2023-03-06T07:12:14.366Z,92.68
2023-03-06T07:14:56.144Z,92.46
2023-03-06T07:17:24.379Z,92.31
2023-03-06T07:19:58.228Z,92.08
2023-03-06T07:22:26.205Z,92.00
2023-03-06T07:24:54.272Z,91.55
2023-03-06T07:27:24.472Z,91.06
2023-03-06T07:29:59.447Z,90.67
2023-03-06T07:32:26.244Z,89.26
2023-03-06T07:35:19.298Z,89.16
2023-03-06T07:37:53.092Z,87.66
2023-03-06T07:40:24.246Z,84.96
2023-03-06T07:42:56.546Z,81.17
2023-03-06T07:45:26.450Z,78.16
2023-03-06T07:47:55.318Z,75.90
2023-03-06T07:50:23.555Z,75.63
2023-03-06T07:52:50.899Z,72.81
2023-03-06T07:55:18.696Z,69.00
2023-03-06T07:57:46.217Z,66.93
2023-03-06T08:05:41.649Z,64.26
2023-03-06T08:10:52.566Z,62.78
2023-03-06T08:13:34.237Z,64.10
2023-03-06T08:18:46.442Z,66.40
2023-03-06T08:24:01.736Z,66.26
2023-03-06T08:26:31.356Z,64.93
2023-03-06T08:29:00.772Z,63.34
2023-03-06T08:31:32.722Z,62.58
2023-03-06T08:34:04.042Z,64.04
2023-03-06T08:36:31.546Z,65.87
2023-03-06T08:38:59.129Z,66.01
2023-03-06T08:41:28.488Z,65.94
2023-03-06T08:43:57.431Z,64.58
2023-03-06T08:46:28.450Z,62.46
2023-03-06T08:49:02.736Z,62.07
2023-03-06T08:51:30.240Z,58.76
2023-03-06T08:54:01.407Z,57.50
2023-03-06T08:56:34.617Z,55.62
2023-03-06T08:59:21.268Z,55.61
2023-03-06T09:01:54.758Z,55.18
2023-03-06T09:04:24.352Z,53.85
2023-03-06T09:06:51.311Z,57.01
2023-03-06T09:09:25.257Z,56.38
2023-03-06T09:11:55.536Z,57.04
2023-03-06T09:14:22.201Z,56.13
2023-03-06T09:17:03.754Z,58.77
2023-03-06T09:19:30.811Z,59.53
2023-03-06T09:21:59.569Z,57.77
2023-03-06T09:24:31.664Z,54.08
2023-03-06T09:26:58.920Z,55.70
2023-03-06T09:29:27.424Z,53.05
2023-03-06T09:31:54.429Z,55.01
2023-03-06T09:34:24.600Z,55.06
2023-03-06T09:36:58.517Z,56.76
2023-03-06T09:39:27.119Z,54.79
2023-03-06T09:41:54.344Z,47.05
2023-03-06T09:44:31.007Z,50.38
2023-03-06T09:47:37.845Z,49.15
2023-03-06T09:50:30.963Z,51.04
2023-03-06T09:53:49.305Z,49.28
2023-03-06T09:56:31.135Z,49.83
2023-03-06T09:59:07.789Z,49.36
2023-03-06T10:01:53.526Z,51.57
2023-03-06T10:04:40.300Z,49.91
2023-03-06T10:07:24.284Z,45.70
2023-03-06T10:09:53.029Z,45.95
2023-03-06T10:12:27.214Z,47.43
2023-03-06T10:15:09.415Z,48.96
2023-03-06T10:17:42.548Z,50.13
2023-03-06T10:20:50.773Z,47.12
2023-03-06T10:23:52.110Z,48.81
2023-03-06T10:26:27.863Z,45.52
2023-03-06T10:29:22.541Z,47.70
2023-03-06T10:32:00.014Z,47.61
2023-03-06T10:34:34.610Z,48.07
2023-03-06T10:37:13.286Z,45.04
2023-03-06T10:39:40.380Z,45.52
2023-03-06T10:42:08.992Z,46.84
2023-03-06T10:44:36.249Z,48.06
2023-03-06T10:47:30.135Z,49.45
2023-03-06T10:50:04.991Z,48.37
2023-03-06T10:52:42.026Z,44.57
2023-03-06T10:55:29.434Z,45.29
2023-03-06T10:57:57.024Z,47.45
2023-03-06T11:00:28.408Z,49.18
2023-03-06T11:03:25.145Z,48.02
2023-03-06T11:06:10.013Z,48.48
2023-03-06T11:08:41.751Z,44.03
2023-03-06T11:11:22.402Z,44.63
2023-03-06T11:13:59.801Z,45.68
2023-03-06T11:16:30.879Z,45.15
2023-03-06T11:19:19.830Z,44.49
2023-03-06T11:22:19.774Z,44.02
2023-03-06T11:24:53.434Z,45.05
2023-03-06T11:27:36.350Z,48.76
2023-03-06T11:30:37.636Z,47.76
2023-03-06T11:33:22.771Z,48.78
2023-03-06T11:36:03.175Z,48.56
2023-03-06T11:38:49.761Z,46.71
2023-03-06T11:41:36.333Z,48.11
2023-03-06T11:44:19.990Z,49.21
2023-03-06T11:47:27.878Z,50.22
2023-03-06T11:50:21.654Z,49.87
2023-03-06T11:53:02.784Z,50.29
2023-03-06T11:56:04.267Z,49.04
2023-03-06T11:59:03.057Z,47.08
2023-03-06T12:01:41.839Z,48.52
2023-03-06T12:04:25.533Z,48.16
2023-03-06T12:07:04.309Z,49.29
2023-03-06T12:09:35.042Z,51.64
2023-03-06T12:12:19.373Z,50.25
2023-03-06T12:15:10.114Z,51.10
2023-03-06T12:18:04.649Z,51.99
2023-03-06T12:21:00.349Z,53.84
2023-03-06T12:23:45.799Z,53.70
2023-03-06T12:26:51.246Z,53.82
2023-03-06T12:29:48.395Z,54.22
2023-03-06T12:32:35.204Z,54.63
2023-03-06T12:35:34.620Z,53.06
2023-03-06T12:38:09.110Z,53.86
2023-03-06T12:41:05.777Z,53.37
2023-03-06T12:43:42.745Z,54.43
2023-03-06T12:46:28.567Z,53.75
2023-03-06T12:49:05.221Z,55.60
2023-03-06T12:51:32.787Z,56.03
2023-03-06T12:54:01.126Z,57.36
2023-03-06T12:56:30.037Z,57.18
2023-03-06T12:58:57.949Z,57.78
2023-03-06T13:01:39.488Z,57.95
2023-03-06T13:04:31.155Z,58.36
2023-03-06T13:07:11.185Z,58.35
2023-03-06T13:09:58.301Z,58.18
2023-03-06T13:12:50.089Z,58.01
2023-03-06T13:15:45.811Z,57.69
2023-03-06T13:18:21.223Z,59.44
2023-03-06T13:20:50.262Z,58.34
2023-03-06T13:23:50.626Z,58.28
2023-03-06T13:26:37.075Z,57.39
2023-03-06T13:29:35.711Z,58.82
2023-03-06T13:32:02.114Z,57.98
2023-03-06T13:34:31.329Z,58.50
2023-03-06T13:37:16.668Z,57.99
2023-03-06T13:39:52.330Z,59.03
2023-03-06T13:42:57.309Z,59.31
2023-03-06T13:45:27.569Z,59.96
2023-03-06T13:50:48.647Z,60.98
2023-03-06T13:53:40.649Z,60.42
2023-03-06T13:56:19.245Z,61.43
2023-03-06T13:59:06.271Z,61.26
2023-03-06T14:01:45.849Z,61.42
2023-03-06T14:04:34.322Z,61.29
2023-03-06T14:07:06.719Z,61.77
2023-03-06T14:09:38.730Z,61.58
2023-03-06T14:12:14.023Z,61.06
2023-03-06T14:14:43.786Z,60.98
2023-03-06T14:17:34.364Z,61.55
2023-03-06T14:20:15.133Z,61.56
2023-03-06T14:22:41.647Z,62.05
2023-03-06T14:25:35.543Z,61.63
2023-03-06T14:28:12.571Z,61.15
2023-03-06T14:30:50.015Z,61.24
2023-03-06T14:34:01.504Z,61.85
2023-03-06T14:36:35.580Z,63.74
2023-03-06T14:39:08.013Z,64.71
2023-03-06T14:41:36.391Z,64.84
2023-03-06T14:44:12.040Z,65.43
2023-03-06T14:46:38.571Z,64.76
2023-03-06T14:49:08.734Z,63.75
2023-03-06T14:51:43.106Z,62.60
2023-03-06T14:54:17.174Z,63.71
2023-03-06T14:59:48.735Z,63.75
2023-03-06T15:02:33.880Z,63.89
2023-03-06T15:05:06.026Z,65.06
2023-03-06T15:07:35.681Z,64.73
2023-03-06T15:10:02.267Z,64.63
2023-03-06T15:12:31.487Z,64.22
2023-03-06T15:15:00.530Z,63.75
2023-03-06T15:17:35.694Z,64.28
2023-03-06T15:20:02.290Z,63.79
2023-03-06T15:22:38.941Z,63.71
2023-03-06T15:25:20.602Z,63.51
2023-03-06T15:27:55.463Z,64.04
2023-03-06T15:30:28.340Z,64.17
2023-03-06T15:33:22.696Z,64.45
2023-03-06T15:35:56.133Z,64.72
2023-03-06T15:38:43.995Z,63.86
2023-03-06T15:41:29.817Z,62.92
2023-03-06T15:43:58.333Z,63.45
2023-03-06T15:46:24.966Z,62.55
2023-03-06T15:49:03.219Z,62.95
2023-03-06T15:51:31.202Z,63.26
2023-03-06T15:54:09.932Z,64.04
2023-03-06T15:56:41.845Z,63.54
2023-03-06T15:59:21.775Z,63.88
2023-03-06T16:01:49.181Z,64.02
2023-03-06T16:04:17.227Z,64.25
2023-03-06T16:06:47.427Z,64.79
2023-03-06T16:09:14.525Z,65.67
2023-03-06T16:11:47.200Z,67.01
2023-03-06T16:14:31.984Z,68.39
2023-03-06T16:16:59.622Z,70.45
2023-03-06T16:19:27.810Z,70.78
2023-03-06T16:21:55.959Z,71.64
2023-03-06T16:24:22.955Z,72.22
2023-03-06T16:26:52.639Z,72.91
2023-03-06T16:29:22.132Z,74.33
2023-03-06T16:31:48.982Z,74.13
2023-03-06T16:34:16.287Z,74.78
2023-03-06T16:36:42.797Z,75.12
2023-03-06T16:39:17.585Z,77.00
2023-03-06T16:41:45.862Z,77.50
2023-03-06T16:44:13.099Z,78.16
2023-03-06T16:46:42.503Z,78.27
2023-03-06T16:49:15.880Z,79.35
2023-03-06T16:51:42.337Z,79.35
2023-03-06T16:54:09.010Z,80.33
2023-03-06T16:56:35.717Z,81.16
2023-03-06T16:59:02.128Z,81.67
2023-03-06T17:01:28.572Z,81.86
2023-03-06T17:03:55.232Z,81.68
2023-03-06T17:06:22.886Z,81.45
2023-03-06T17:08:50.721Z,82.51
2023-03-06T17:11:20.198Z,83.13
2023-03-06T17:13:47.550Z,83.75
2023-03-06T17:16:18.353Z,83.85
2023-03-06T17:18:45.879Z,84.72
2023-03-06T17:21:15.590Z,85.15
2023-03-06T17:23:42.403Z,85.00
2023-03-06T17:26:12.273Z,84.79
2023-03-06T17:28:39.298Z,85.23
2023-03-06T17:31:26.695Z,85.66
2023-03-06T17:33:57.275Z,85.93
2023-03-06T17:36:23.724Z,86.09
2023-03-06T17:38:50.181Z,86.22
2023-03-06T17:41:16.736Z,86.69
2023-03-06T17:43:43.442Z,87.07
2023-03-06T17:46:12.460Z,86.82
2023-03-06T17:48:39.495Z,87.27
2023-03-06T17:51:06.784Z,86.60
2023-03-06T17:53:33.411Z,87.00
2023-03-06T17:56:00.006Z,86.91
2023-03-06T17:58:27.303Z,86.12
2023-03-06T18:00:53.899Z,86.22
2023-03-06T18:03:20.452Z,85.64
2023-03-06T18:05:46.947Z,85.71
2023-03-06T18:08:13.925Z,85.59
2023-03-06T18:10:41.828Z,85.39
2023-03-06T18:13:09.120Z,85.64
2023-03-06T18:15:39.662Z,85.72
2023-03-06T18:18:06.936Z,85.91
2023-03-06T18:20:33.640Z,86.15
2023-03-06T18:23:03.688Z,86.15
2023-03-06T18:25:31.433Z,86.17
2023-03-06T18:27:58.269Z,86.73
2023-03-06T18:30:24.973Z,86.54
2023-03-06T18:32:51.537Z,86.28
2023-03-06T18:35:18.213Z,87.35
2023-03-06T18:37:44.721Z,87.31
2023-03-06T18:40:11.959Z,87.09
2023-03-06T18:42:38.829Z,88.05
2023-03-06T18:45:05.761Z,87.86
2023-03-06T18:47:32.260Z,88.40
2023-03-06T18:49:58.745Z,88.66
2023-03-06T18:52:25.261Z,88.63
2023-03-06T18:54:51.732Z,88.88
2023-03-06T18:57:18.372Z,89.48
2023-03-06T18:59:45.233Z,89.64
2023-03-06T19:02:12.662Z,90.11
2023-03-06T19:04:41.806Z,89.94
2023-03-06T19:07:08.271Z,90.02
2023-03-06T19:09:34.923Z,90.68
2023-03-06T19:12:03.466Z,90.70
2023-03-06T19:14:29.974Z,90.83
2023-03-06T19:16:56.912Z,91.17
2023-03-06T19:19:26.604Z,91.46
2023-03-06T19:21:53.662Z,91.65
2023-03-06T19:24:20.262Z,92.23
2023-03-06T19:26:46.789Z,92.34
2023-03-06T19:29:13.637Z,92.26
2023-03-06T19:31:41.689Z,92.83
2023-03-06T19:34:08.682Z,92.89
2023-03-06T19:36:35.158Z,92.95
2023-03-06T19:39:04.296Z,93.51
2023-03-06T19:41:30.952Z,93.22
2023-03-06T19:43:59.490Z,94.38
2023-03-06T19:46:26.826Z,95.12
2023-03-06T19:48:58.455Z,95.70
2023-03-06T19:51:26.117Z,96.06
2023-03-06T19:53:53.353Z,96.70
2023-03-06T19:56:23.168Z,96.85
2023-03-06T19:58:49.749Z,97.54
2023-03-06T20:01:18.902Z,98.01
2023-03-06T20:03:45.547Z,98.12
2023-03-06T20:06:14.518Z,98.60
2023-03-06T20:08:45.309Z,98.88
2023-03-06T20:11:30.146Z,99.44
2023-03-06T20:13:58.782Z,99.77
2023-03-06T20:16:27.950Z,99.89
2023-03-06T20:18:58.034Z,100.00
2023-03-06T20:21:25.948Z,100.00
2023-03-06T20:23:54.742Z,100.00
2023-03-06T20:26:21.293Z,100.00
2023-03-06T20:28:47.728Z,100.00
2023-03-06T20:31:17.964Z,100.00
2023-03-06T20:33:51.124Z,100.00
2023-03-06T20:36:23.651Z,100.00
2023-03-06T20:38:50.676Z,100.00
2023-03-06T20:41:22.685Z,100.00
2023-03-06T20:43:50.029Z,100.00
2023-03-06T20:46:17.680Z,100.00
2023-03-06T20:48:48.456Z,100.00
2023-03-06T20:51:19.129Z,100.00
2023-03-06T20:53:50.439Z,100.00
2023-03-06T20:56:19.449Z,100.00
2023-03-06T20:58:46.247Z,100.00
2023-03-06T21:01:27.498Z,100.00
2023-03-06T21:03:54.734Z,100.00
2023-03-06T21:06:21.185Z,100.00
2023-03-06T21:08:47.984Z,100.00
2023-03-06T21:11:15.241Z,100.00
2023-03-06T21:13:42.432Z,100.00
2023-03-06T21:16:13.023Z,100.00
2023-03-06T21:18:40.338Z,100.00
2023-03-06T21:21:08.045Z,100.00
2023-03-06T21:23:34.634Z,100.00
2023-03-06T21:26:01.325Z,100.00
2023-03-06T21:28:27.824Z,100.00
2023-03-06T21:30:54.304Z,100.00
2023-03-06T21:33:20.770Z,100.00
2023-03-06T21:35:47.602Z,100.00
2023-03-06T21:38:14.415Z,100.00
2023-03-06T21:40:47.244Z,100.00
2023-03-06T21:43:15.816Z,100.00
2023-03-06T21:45:46.606Z,100.00
2023-03-06T21:48:14.889Z,100.00
2023-03-06T21:50:42.443Z,100.00
2023-03-06T21:53:09.348Z,100.00
2023-03-06T21:55:39.281Z,100.00
2023-03-06T21:58:05.789Z,100.00
2023-03-06T22:00:35.998Z,100.00
2023-03-06T22:03:06.647Z,100.00
2023-03-06T22:05:41.957Z,100.00
2023-03-06T22:08:11.247Z,100.00
2023-03-06T22:10:41.954Z,100.00
2023-03-06T22:13:08.430Z,100.00
2023-03-06T22:15:35.156Z,100.00
2023-03-06T22:18:01.602Z,100.00
2023-03-06T22:20:28.223Z,100.00
2023-03-06T22:22:54.787Z,100.00
2023-03-06T22:25:21.227Z,100.00
2023-03-06T22:28:26.099Z,100.00
2023-03-06T22:30:52.647Z,100.00
2023-03-06T22:36:06.401Z,100.00
2023-03-06T22:38:37.069Z,100.00
2023-03-06T22:41:04.814Z,100.00
2023-03-06T22:43:33.290Z,100.00
2023-03-06T22:46:06.161Z,100.00
2023-03-06T22:48:32.854Z,100.00
2023-03-06T22:51:07.432Z,100.00
2023-03-06T22:53:34.321Z,100.00
2023-03-06T22:56:02.373Z,100.00
2023-03-06T22:58:41.190Z,100.00
2023-03-06T23:01:12.806Z,100.00
2023-03-06T23:03:42.476Z,100.00
2023-03-06T23:06:14.523Z,100.00
2023-03-06T23:08:42.266Z,100.00
2023-03-06T23:11:11.938Z,100.00
2023-03-06T23:13:39.094Z,100.00
2023-03-06T23:16:06.751Z,100.00
2023-03-06T23:18:37.709Z,100.00
2023-03-06T23:21:13.031Z,100.00
2023-03-06T23:23:40.161Z,100.00
2023-03-06T23:26:08.100Z,100.00
2023-03-06T23:28:37.670Z,100.00
2023-03-06T23:31:09.230Z,100.00
2023-03-06T23:36:19.709Z,100.00
2023-03-06T23:38:46.768Z,100.00
2023-03-06T23:41:18.474Z,100.00
2023-03-06T23:43:46.262Z,100.00
2023-03-06T23:46:13.150Z,100.00
2023-03-06T23:48:41.289Z,100.00
2023-03-06T23:51:16.771Z,100.00
2023-03-06T23:53:45.207Z,100.00
2023-03-06T23:56:12.025Z,100.00
2023-03-06T23:58:38.793Z,100.00
